createdAt,value
2022-08-26T00:04:57.844Z,5.03
2022-08-26T00:09:59.671Z,6.13
2022-08-26T00:15:02.614Z,5.63
2022-08-26T00:20:06.884Z,6.30
2022-08-26T00:25:09.773Z,5.10
2022-08-26T00:30:16.275Z,5.80
2022-08-26T00:35:25.350Z,6.03
2022-08-26T00:40:33.772Z,7.60
2022-08-26T00:45:44.035Z,7.27
2022-08-26T00:50:52.705Z,6.07
2022-08-26T00:56:00.318Z,6.17
2022-08-26T01:01:02.906Z,7.07
2022-08-26T01:06:06.620Z,6.07
2022-08-26T01:11:16.214Z,5.40
2022-08-26T01:16:18.381Z,11.17
2022-08-26T01:21:54.619Z,7.40
2022-08-26T01:27:00.497Z,7.03
2022-08-26T01:32:05.025Z,7.17
2022-08-26T01:37:16.744Z,7.57
2022-08-26T01:42:20.284Z,7.10
2022-08-26T01:47:25.741Z,8.00
2022-08-26T01:52:30.181Z,5.47
2022-08-26T01:57:32.742Z,6.53
2022-08-26T02:02:35.775Z,7.10
2022-08-26T02:07:39.485Z,6.30
2022-08-26T02:12:42.070Z,6.50
2022-08-26T02:17:46.609Z,6.50
2022-08-26T02:22:49.933Z,7.10
2022-08-26T02:27:52.960Z,7.67
2022-08-26T02:32:55.302Z,9.20
2022-08-26T02:37:58.495Z,7.80
2022-08-26T02:43:01.268Z,9.40
2022-08-26T02:48:10.219Z,11.07
2022-08-26T02:53:12.886Z,7.93
2022-08-26T02:58:15.772Z,9.30
2022-08-26T03:03:18.050Z,7.80
2022-08-26T03:08:20.863Z,6.73
2022-08-26T03:13:22.723Z,7.63
2022-08-26T03:18:24.563Z,9.70
2022-08-26T03:23:26.870Z,7.40
2022-08-26T03:28:28.856Z,8.33
2022-08-26T03:33:30.679Z,6.80
2022-08-26T03:38:32.556Z,8.30
2022-08-26T03:43:34.793Z,9.00
2022-08-26T03:48:37.269Z,6.67
2022-08-26T03:53:39.101Z,7.67
2022-08-26T03:58:42.978Z,8.73
2022-08-26T04:04:00.967Z,7.97
2022-08-26T04:09:09.944Z,7.13
2022-08-26T04:14:20.126Z,8.30
2022-08-26T04:19:23.061Z,7.20
2022-08-26T04:24:27.902Z,11.80
2022-08-26T04:29:29.930Z,8.93
2022-08-26T04:34:32.768Z,6.83
2022-08-26T04:39:35.597Z,7.50
2022-08-26T04:44:38.253Z,7.97
2022-08-26T04:49:42.032Z,8.10
2022-08-26T04:54:44.273Z,8.67
2022-08-26T04:59:46.140Z,7.60
2022-08-26T05:04:52.424Z,7.13
2022-08-26T05:09:54.765Z,7.43
2022-08-26T05:14:57.170Z,9.57
2022-08-26T05:20:00.351Z,8.73
2022-08-26T05:25:02.240Z,10.77
2022-08-26T05:30:06.483Z,12.10
2022-08-26T05:35:09.146Z,8.87
2022-08-26T05:40:11.695Z,10.60
2022-08-26T05:45:14.157Z,7.80
2022-08-26T05:50:16.164Z,11.17
2022-08-26T05:55:18.955Z,11.77
2022-08-26T06:00:21.811Z,9.30
2022-08-26T06:05:24.142Z,12.27
2022-08-26T06:10:32.577Z,10.13
2022-08-26T06:15:35.521Z,10.43
2022-08-26T06:20:37.861Z,11.57
2022-08-26T06:25:39.821Z,12.03
2022-08-26T06:30:42.622Z,13.97
2022-08-26T06:35:46.991Z,12.47
2022-08-26T06:40:52.292Z,12.13
2022-08-26T06:46:02.133Z,15.80
2022-08-26T06:51:09.142Z,14.80
2022-08-26T06:56:11.901Z,14.70
2022-08-26T07:01:26.528Z,11.90
2022-08-26T07:06:28.551Z,13.27
2022-08-26T07:11:31.493Z,14.17
2022-08-26T07:16:35.695Z,12.73
2022-08-26T07:21:38.157Z,12.10
2022-08-26T07:26:43.125Z,14.57
2022-08-26T07:31:45.273Z,12.13
2022-08-26T07:36:47.834Z,11.93
2022-08-26T07:41:51.776Z,12.33
2022-08-26T07:46:54.591Z,14.53
2022-08-26T07:51:56.501Z,11.30
2022-08-26T07:56:58.731Z,12.10
2022-08-26T08:02:01.583Z,12.43
2022-08-26T08:07:04.304Z,10.10
2022-08-26T08:12:09.519Z,10.10
2022-08-26T08:17:16.617Z,6.83
2022-08-26T08:22:19.946Z,11.83
2022-08-26T08:27:24.276Z,10.00
2022-08-26T08:32:26.781Z,8.20
2022-08-26T08:37:28.871Z,11.10
2022-08-26T08:42:49.747Z,12.40
2022-08-26T08:48:02.139Z,10.67
2022-08-26T08:53:15.931Z,11.37
2022-08-26T08:58:21.027Z,9.97
2022-08-26T09:04:06.042Z,14.10
2022-08-26T09:09:09.425Z,9.87
2022-08-26T09:14:11.603Z,9.90
2022-08-26T09:19:37.109Z,9.33
2022-08-26T09:24:42.012Z,10.60
2022-08-26T09:29:50.485Z,10.77
2022-08-26T09:34:57.283Z,9.13
2022-08-26T09:40:18.363Z,10.20
2022-08-26T09:45:28.296Z,9.53
2022-08-26T09:50:32.749Z,8.77
2022-08-26T09:55:36.079Z,8.27
2022-08-26T10:00:40.169Z,9.03
2022-08-26T10:06:00.890Z,11.43
2022-08-26T10:11:06.934Z,12.80
2022-08-26T10:16:15.685Z,14.50
2022-08-26T10:22:12.862Z,10.93
2022-08-26T10:27:51.027Z,9.37
2022-08-26T10:33:11.671Z,13.43
2022-08-26T10:38:19.598Z,12.70
2022-08-26T10:43:26.903Z,11.23
2022-08-26T10:49:18.263Z,10.57
2022-08-26T10:54:20.516Z,9.70
2022-08-26T10:59:58.282Z,11.13
2022-08-26T11:05:03.334Z,7.83
2022-08-26T11:10:16.219Z,8.07
2022-08-26T11:15:24.762Z,7.37
2022-08-26T11:20:42.159Z,5.80
2022-08-26T11:25:57.039Z,12.60
2022-08-26T11:30:59.268Z,13.53
2022-08-26T11:36:01.239Z,10.83
2022-08-26T11:41:20.680Z,6.00
2022-08-26T11:46:28.538Z,6.83
2022-08-26T11:51:31.521Z,7.77
2022-08-26T11:56:35.994Z,11.20
2022-08-26T12:01:44.162Z,7.43
2022-08-26T12:06:48.505Z,12.03
2022-08-26T12:11:51.013Z,6.63
2022-08-26T12:16:54.121Z,8.37
2022-08-26T12:22:22.926Z,7.13
2022-08-26T12:27:34.688Z,5.80
2022-08-26T12:32:57.529Z,7.17
2022-08-26T12:38:00.760Z,6.83
2022-08-26T12:43:04.725Z,6.90
2022-08-26T12:48:09.974Z,5.37
2022-08-26T12:53:12.024Z,5.07
2022-08-26T12:58:22.358Z,5.90
2022-08-26T13:03:29.317Z,6.33
2022-08-26T13:08:31.560Z,8.47
2022-08-26T13:13:34.855Z,8.67
2022-08-26T13:18:36.712Z,7.50
2022-08-26T13:23:42.409Z,7.57
2022-08-26T13:28:44.660Z,5.37
2022-08-26T13:33:50.858Z,4.20
2022-08-26T13:38:53.146Z,3.90
2022-08-26T13:43:55.497Z,6.30
2022-08-26T13:48:58.315Z,5.83
2022-08-26T13:54:00.643Z,5.90
2022-08-26T13:59:03.033Z,7.20
2022-08-26T14:04:05.283Z,12.50
2022-08-26T14:09:07.135Z,6.80
2022-08-26T14:14:09.782Z,9.63
2022-08-26T14:19:12.107Z,9.33
2022-08-26T14:24:14.416Z,6.13
2022-08-26T14:29:17.038Z,4.70
2022-08-26T14:34:19.414Z,3.77
2022-08-26T14:39:21.671Z,4.80
2022-08-26T14:44:32.778Z,4.93
2022-08-26T14:49:35.054Z,5.63
2022-08-26T14:54:37.800Z,5.53
2022-08-26T14:59:49.609Z,4.03
2022-08-26T15:04:52.034Z,5.97
2022-08-26T15:09:54.392Z,5.90
2022-08-26T15:14:56.686Z,6.73
2022-08-26T15:19:58.530Z,4.40
2022-08-26T15:25:00.751Z,5.13
2022-08-26T15:30:03.732Z,4.00
2022-08-26T15:35:09.090Z,3.90
2022-08-26T15:40:11.722Z,5.13
2022-08-26T15:45:14.072Z,5.90
2022-08-26T15:50:28.994Z,6.90
2022-08-26T15:55:30.837Z,5.03
2022-08-26T16:00:33.157Z,5.03
2022-08-26T16:05:43.595Z,8.10
2022-08-26T16:10:50.630Z,4.80
2022-08-26T16:15:53.684Z,6.30
2022-08-26T16:21:12.822Z,5.93
2022-08-26T16:26:21.998Z,5.33
2022-08-26T16:31:24.434Z,6.40
2022-08-26T16:36:26.387Z,9.60
2022-08-26T16:41:30.526Z,7.50
2022-08-26T16:46:33.632Z,7.13
2022-08-26T16:51:38.073Z,4.70
2022-08-26T16:56:40.415Z,8.20
2022-08-26T17:01:42.468Z,7.00
2022-08-26T17:06:44.802Z,9.07
2022-08-26T17:11:46.869Z,9.03
2022-08-26T17:16:51.307Z,6.40
2022-08-26T17:21:53.211Z,6.90
2022-08-26T17:26:55.718Z,7.03
2022-08-26T17:31:58.105Z,7.50
2022-08-26T17:37:00.006Z,8.60
2022-08-26T17:42:01.896Z,6.87
2022-08-26T17:47:04.885Z,9.63
2022-08-26T17:52:11.017Z,8.90
2022-08-26T17:57:13.487Z,8.03
2022-08-26T18:02:16.033Z,7.90
2022-08-26T18:07:18.580Z,8.73
2022-08-26T18:12:20.956Z,9.40
2022-08-26T18:17:27.805Z,8.47
2022-08-26T18:22:30.491Z,17.63
2022-08-26T18:27:33.040Z,20.20
2022-08-26T18:32:35.635Z,22.40
2022-08-26T18:37:38.290Z,16.10
2022-08-26T18:42:41.351Z,19.70
2022-08-26T18:47:43.518Z,21.20
2022-08-26T18:52:45.401Z,18.83
2022-08-26T18:57:47.460Z,17.63
2022-08-26T19:02:51.673Z,24.50
2022-08-26T19:07:56.507Z,16.60
2022-08-26T19:13:00.707Z,18.80
2022-08-26T19:18:04.687Z,18.20
2022-08-26T19:23:28.081Z,13.50
2022-08-26T19:28:29.142Z,13.13
2022-08-26T19:33:31.562Z,13.20
2022-08-26T19:38:34.438Z,13.37
2022-08-26T19:43:36.264Z,12.67
2022-08-26T19:48:38.597Z,13.57
2022-08-26T19:53:40.492Z,14.43
2022-08-26T19:58:44.059Z,13.47
2022-08-26T20:03:46.419Z,20.60
2022-08-26T20:08:50.794Z,15.87
2022-08-26T20:13:54.108Z,18.40
2022-08-26T20:19:14.875Z,15.43
2022-08-26T20:24:18.802Z,15.50
2022-08-26T20:29:21.660Z,11.10
2022-08-26T20:34:23.504Z,8.47
2022-08-26T20:39:29.390Z,7.63
2022-08-26T20:44:31.286Z,11.00
2022-08-26T20:49:33.456Z,5.87
2022-08-26T20:54:37.257Z,7.70
2022-08-26T20:59:39.131Z,5.03
2022-08-26T21:04:41.010Z,8.20
2022-08-26T21:09:43.297Z,4.40
2022-08-26T21:14:49.071Z,6.57
2022-08-26T21:19:52.009Z,6.37
2022-08-26T21:24:53.950Z,5.30
2022-08-26T21:29:56.076Z,4.17
2022-08-26T21:34:59.266Z,5.70
2022-08-26T21:40:05.475Z,4.80
2022-08-26T21:45:08.846Z,4.67
2022-08-26T21:50:11.215Z,5.43
2022-08-26T21:55:13.125Z,3.87
2022-08-26T22:00:16.734Z,5.47
2022-08-26T22:05:19.048Z,3.10
2022-08-26T22:10:21.380Z,3.60
2022-08-26T22:15:27.289Z,5.23
2022-08-26T22:20:31.004Z,5.80
2022-08-26T22:25:33.361Z,3.80
2022-08-26T22:30:35.490Z,8.40
2022-08-26T22:35:46.477Z,4.80
2022-08-26T22:40:50.971Z,5.80
2022-08-26T22:45:53.611Z,5.00
2022-08-26T22:51:00.193Z,8.00
2022-08-26T22:56:02.428Z,6.27
2022-08-26T23:01:06.358Z,5.13
2022-08-26T23:06:11.992Z,7.20
2022-08-26T23:11:14.937Z,7.80
2022-08-26T23:16:16.819Z,9.40
2022-08-26T23:21:18.948Z,8.47
2022-08-26T23:26:20.778Z,7.90
2022-08-26T23:31:22.633Z,7.93
2022-08-26T23:36:24.502Z,5.63
2022-08-26T23:41:27.998Z,8.70
2022-08-26T23:46:30.247Z,7.60
2022-08-26T23:51:50.670Z,7.60
2022-08-26T23:56:52.947Z,9.40
